sensor_id;sensor_type;location;lat;lon;timestamp;P1;durP1;ratioP1;P2;durP2;ratioP2
2053;SDS011;1032;52.542;13.440;2022-08-21T00:00:09;7.90;;;7.10;;
2053;SDS011;1032;52.542;13.440;2022-08-21T00:02:43;7.73;;;7.00;;
2053;SDS011;1032;52.542;13.440;2022-08-21T00:05:11;8.73;;;7.93;;
2053;SDS011;1032;52.542;13.440;2022-08-21T00:07:38;7.97;;;7.30;;
2053;SDS011;1032;52.542;13.440;2022-08-21T00:10:05;6.80;;;6.20;;
2053;SDS011;1032;52.542;13.440;2022-08-21T00:12:32;7.93;;;7.23;;
2053;SDS011;1032;52.542;13.440;2022-08-21T00:14:59;9.60;;;8.70;;
2053;SDS011;1032;52.542;13.440;2022-08-21T00:17:27;8.80;;;7.97;;
2053;SDS011;1032;52.542;13.440;2022-08-21T00:19:53;9.43;;;8.63;;
2053;SDS011;1032;52.542;13.440;2022-08-21T00:22:20;8.77;;;7.60;;
2053;SDS011;1032;52.542;13.440;2022-08-21T00:24:46;8.73;;;7.80;;
2053;SDS011;1032;52.542;13.440;2022-08-21T00:27:13;10.53;;;8.40;;
2053;SDS011;1032;52.542;13.440;2022-08-21T00:29:39;10.10;;;8.03;;
2053;SDS011;1032;52.542;13.440;2022-08-21T00:32:06;9.43;;;8.53;;
2053;SDS011;1032;52.542;13.440;2022-08-21T00:34:34;9.97;;;8.10;;
2053;SDS011;1032;52.542;13.440;2022-08-21T00:37:01;8.80;;;8.00;;
2053;SDS011;1032;52.542;13.440;2022-08-21T00:39:28;12.60;;;8.73;;
2053;SDS011;1032;52.542;13.440;2022-08-21T00:41:54;15.10;;;7.67;;
2053;SDS011;1032;52.542;13.440;2022-08-21T00:44:21;7.70;;;6.93;;
2053;SDS011;1032;52.542;13.440;2022-08-21T00:46:48;8.37;;;7.50;;
2053;SDS011;1032;52.542;13.440;2022-08-21T00:49:14;10.90;;;7.60;;
2053;SDS011;1032;52.542;13.440;2022-08-21T00:51:43;9.33;;;7.93;;
2053;SDS011;1032;52.542;13.440;2022-08-21T00:54:14;8.37;;;7.53;;
2053;SDS011;1032;52.542;13.440;2022-08-21T00:56:42;8.03;;;7.33;;
2053;SDS011;1032;52.542;13.440;2022-08-21T00:59:09;10.00;;;7.27;;
2053;SDS011;1032;52.542;13.440;2022-08-21T01:01:36;7.77;;;7.10;;
2053;SDS011;1032;52.542;13.440;2022-08-21T01:04:03;8.30;;;7.60;;
2053;SDS011;1032;52.542;13.440;2022-08-21T01:06:29;8.17;;;7.37;;
2053;SDS011;1032;52.542;13.440;2022-08-21T01:08:58;10.53;;;7.73;;
2053;SDS011;1032;52.542;13.440;2022-08-21T01:11:25;7.80;;;7.17;;
2053;SDS011;1032;52.542;13.440;2022-08-21T01:13:51;8.37;;;7.53;;
2053;SDS011;1032;52.542;13.440;2022-08-21T01:16:20;9.07;;;8.00;;
2053;SDS011;1032;52.542;13.440;2022-08-21T01:18:48;8.10;;;7.40;;
2053;SDS011;1032;52.542;13.440;2022-08-21T01:21:17;7.77;;;7.00;;
2053;SDS011;1032;52.542;13.440;2022-08-21T01:23:46;8.93;;;8.10;;
2053;SDS011;1032;52.542;13.440;2022-08-21T01:26:15;7.87;;;7.20;;
2053;SDS011;1032;52.542;13.440;2022-08-21T01:28:45;8.47;;;7.63;;
2053;SDS011;1032;52.542;13.440;2022-08-21T01:31:15;7.30;;;6.60;;
2053;SDS011;1032;52.542;13.440;2022-08-21T01:33:45;10.23;;;6.50;;
2053;SDS011;1032;52.542;13.440;2022-08-21T01:36:12;7.30;;;6.57;;
2053;SDS011;1032;52.542;13.440;2022-08-21T01:38:39;9.70;;;6.33;;
2053;SDS011;1032;52.542;13.440;2022-08-21T01:41:06;7.67;;;6.87;;
2053;SDS011;1032;52.542;13.440;2022-08-21T01:43:33;10.67;;;7.23;;
2053;SDS011;1032;52.542;13.440;2022-08-21T01:45:59;11.23;;;7.70;;
2053;SDS011;1032;52.542;13.440;2022-08-21T01:48:27;7.93;;;7.23;;
2053;SDS011;1032;52.542;13.440;2022-08-21T01:50:54;6.77;;;6.13;;
2053;SDS011;1032;52.542;13.440;2022-08-21T01:53:21;9.93;;;7.03;;
2053;SDS011;1032;52.542;13.440;2022-08-21T01:55:49;7.37;;;6.10;;
2053;SDS011;1032;52.542;13.440;2022-08-21T01:58:15;8.90;;;6.50;;
2053;SDS011;1032;52.542;13.440;2022-08-21T02:00:42;7.10;;;6.03;;
2053;SDS011;1032;52.542;13.440;2022-08-21T02:03:08;7.70;;;6.43;;
2053;SDS011;1032;52.542;13.440;2022-08-21T02:05:35;10.23;;;7.10;;
2053;SDS011;1032;52.542;13.440;2022-08-21T02:08:02;8.30;;;6.27;;
2053;SDS011;1032;52.542;13.440;2022-08-21T02:10:29;8.07;;;5.60;;
2053;SDS011;1032;52.542;13.440;2022-08-21T02:12:59;7.53;;;5.57;;
2053;SDS011;1032;52.542;13.440;2022-08-21T02:15:26;6.87;;;5.67;;
2053;SDS011;1032;52.542;13.440;2022-08-21T02:17:54;11.33;;;5.53;;
2053;SDS011;1032;52.542;13.440;2022-08-21T02:20:24;10.87;;;5.80;;
2053;SDS011;1032;52.542;13.440;2022-08-21T02:22:52;5.90;;;5.30;;
2053;SDS011;1032;52.542;13.440;2022-08-21T02:25:20;6.97;;;5.27;;
2053;SDS011;1032;52.542;13.440;2022-08-21T02:27:48;7.07;;;5.37;;
2053;SDS011;1032;52.542;13.440;2022-08-21T02:30:18;9.93;;;5.60;;
2053;SDS011;1032;52.542;13.440;2022-08-21T02:32:47;10.00;;;4.90;;
2053;SDS011;1032;52.542;13.440;2022-08-21T02:35:13;7.43;;;5.67;;
2053;SDS011;1032;52.542;13.440;2022-08-21T02:37:44;5.60;;;4.40;;
2053;SDS011;1032;52.542;13.440;2022-08-21T02:40:13;9.20;;;5.33;;
2053;SDS011;1032;52.542;13.440;2022-08-21T02:42:40;6.47;;;5.27;;
2053;SDS011;1032;52.542;13.440;2022-08-21T02:45:07;8.73;;;4.93;;
2053;SDS011;1032;52.542;13.440;2022-08-21T02:47:35;5.80;;;4.57;;
2053;SDS011;1032;52.542;13.440;2022-08-21T02:50:02;7.43;;;4.90;;
2053;SDS011;1032;52.542;13.440;2022-08-21T02:52:29;7.43;;;4.13;;
2053;SDS011;1032;52.542;13.440;2022-08-21T02:54:56;9.23;;;4.70;;
2053;SDS011;1032;52.542;13.440;2022-08-21T02:57:23;5.37;;;4.40;;
2053;SDS011;1032;52.542;13.440;2022-08-21T02:59:49;8.10;;;4.77;;
2053;SDS011;1032;52.542;13.440;2022-08-21T03:02:16;6.27;;;5.20;;
2053;SDS011;1032;52.542;13.440;2022-08-21T03:04:44;8.03;;;4.30;;
2053;SDS011;1032;52.542;13.440;2022-08-21T03:07:11;6.27;;;4.30;;
2053;SDS011;1032;52.542;13.440;2022-08-21T03:09:37;6.57;;;4.50;;
2053;SDS011;1032;52.542;13.440;2022-08-21T03:12:04;7.23;;;4.23;;
2053;SDS011;1032;52.542;13.440;2022-08-21T03:14:31;7.67;;;4.33;;
2053;SDS011;1032;52.542;13.440;2022-08-21T03:16:57;6.30;;;3.87;;
2053;SDS011;1032;52.542;13.440;2022-08-21T03:19:24;9.30;;;4.97;;
2053;SDS011;1032;52.542;13.440;2022-08-21T03:21:52;9.17;;;4.63;;
2053;SDS011;1032;52.542;13.440;2022-08-21T03:24:19;6.23;;;3.50;;
2053;SDS011;1032;52.542;13.440;2022-08-21T03:26:45;5.53;;;3.30;;
2053;SDS011;1032;52.542;13.440;2022-08-21T03:29:12;9.50;;;4.40;;
2053;SDS011;1032;52.542;13.440;2022-08-21T03:31:38;8.80;;;4.30;;
2053;SDS011;1032;52.542;13.440;2022-08-21T03:34:05;8.90;;;3.60;;
2053;SDS011;1032;52.542;13.440;2022-08-21T03:36:32;5.10;;;3.80;;
2053;SDS011;1032;52.542;13.440;2022-08-21T03:39:00;5.40;;;4.13;;
2053;SDS011;1032;52.542;13.440;2022-08-21T03:41:27;6.50;;;4.00;;
2053;SDS011;1032;52.542;13.440;2022-08-21T03:43:53;5.73;;;4.37;;
2053;SDS011;1032;52.542;13.440;2022-08-21T03:46:20;7.13;;;4.33;;
2053;SDS011;1032;52.542;13.440;2022-08-21T03:48:46;9.90;;;4.80;;
2053;SDS011;1032;52.542;13.440;2022-08-21T03:51:13;5.07;;;3.80;;
2053;SDS011;1032;52.542;13.440;2022-08-21T03:53:40;7.23;;;4.27;;
2053;SDS011;1032;52.542;13.440;2022-08-21T03:56:08;7.80;;;4.10;;
2053;SDS011;1032;52.542;13.440;2022-08-21T03:58:35;7.47;;;3.83;;
2053;SDS011;1032;52.542;13.440;2022-08-21T04:01:03;7.43;;;5.03;;
2053;SDS011;1032;52.542;13.440;2022-08-21T04:03:32;5.77;;;3.70;;
2053;SDS011;1032;52.542;13.440;2022-08-21T04:06:01;6.30;;;4.10;;
2053;SDS011;1032;52.542;13.440;2022-08-21T04:08:27;7.67;;;3.30;;
2053;SDS011;1032;52.542;13.440;2022-08-21T04:10:55;5.83;;;4.23;;
2053;SDS011;1032;52.542;13.440;2022-08-21T04:13:25;9.27;;;3.93;;
2053;SDS011;1032;52.542;13.440;2022-08-21T04:15:53;6.47;;;3.83;;
2053;SDS011;1032;52.542;13.440;2022-08-21T04:18:20;13.30;;;3.80;;
2053;SDS011;1032;52.542;13.440;2022-08-21T04:20:48;8.60;;;4.50;;
2053;SDS011;1032;52.542;13.440;2022-08-21T04:23:17;7.87;;;3.73;;
2053;SDS011;1032;52.542;13.440;2022-08-21T04:25:44;6.93;;;3.60;;
2053;SDS011;1032;52.542;13.440;2022-08-21T04:28:11;7.20;;;3.70;;
2053;SDS011;1032;52.542;13.440;2022-08-21T04:30:39;8.50;;;4.00;;
2053;SDS011;1032;52.542;13.440;2022-08-21T04:33:06;7.67;;;3.50;;
2053;SDS011;1032;52.542;13.440;2022-08-21T04:35:32;5.63;;;3.33;;
2053;SDS011;1032;52.542;13.440;2022-08-21T04:37:59;6.80;;;3.00;;
2053;SDS011;1032;52.542;13.440;2022-08-21T04:40:26;5.40;;;3.10;;
2053;SDS011;1032;52.542;13.440;2022-08-21T04:42:54;6.67;;;3.23;;
2053;SDS011;1032;52.542;13.440;2022-08-21T04:45:25;4.70;;;2.80;;
2053;SDS011;1032;52.542;13.440;2022-08-21T04:47:55;6.80;;;3.13;;
2053;SDS011;1032;52.542;13.440;2022-08-21T04:50:24;9.87;;;5.43;;
2053;SDS011;1032;52.542;13.440;2022-08-21T04:53:02;4.73;;;3.10;;
2053;SDS011;1032;52.542;13.440;2022-08-21T04:55:29;5.47;;;3.40;;
2053;SDS011;1032;52.542;13.440;2022-08-21T04:57:56;5.97;;;2.80;;
2053;SDS011;1032;52.542;13.440;2022-08-21T05:00:23;6.33;;;3.00;;
2053;SDS011;1032;52.542;13.440;2022-08-21T05:02:51;11.33;;;3.47;;
2053;SDS011;1032;52.542;13.440;2022-08-21T05:05:23;5.73;;;3.30;;
2053;SDS011;1032;52.542;13.440;2022-08-21T05:07:51;6.37;;;3.50;;
2053;SDS011;1032;52.542;13.440;2022-08-21T05:10:18;4.53;;;2.90;;
2053;SDS011;1032;52.542;13.440;2022-08-21T05:12:45;7.27;;;2.80;;
2053;SDS011;1032;52.542;13.440;2022-08-21T05:15:12;8.07;;;3.33;;
2053;SDS011;1032;52.542;13.440;2022-08-21T05:17:39;5.57;;;2.87;;
2053;SDS011;1032;52.542;13.440;2022-08-21T05:20:07;8.53;;;2.87;;
2053;SDS011;1032;52.542;13.440;2022-08-21T05:22:35;5.00;;;2.83;;
2053;SDS011;1032;52.542;13.440;2022-08-21T05:25:02;4.33;;;3.17;;
2053;SDS011;1032;52.542;13.440;2022-08-21T05:27:29;6.03;;;3.10;;
2053;SDS011;1032;52.542;13.440;2022-08-21T05:29:56;6.70;;;3.23;;
2053;SDS011;1032;52.542;13.440;2022-08-21T05:32:23;6.60;;;3.37;;
2053;SDS011;1032;52.542;13.440;2022-08-21T05:34:52;6.23;;;3.60;;
2053;SDS011;1032;52.542;13.440;2022-08-21T05:37:21;7.53;;;3.70;;
2053;SDS011;1032;52.542;13.440;2022-08-21T05:39:47;6.00;;;2.57;;
2053;SDS011;1032;52.542;13.440;2022-08-21T05:42:14;7.37;;;3.03;;
2053;SDS011;1032;52.542;13.440;2022-08-21T05:44:41;9.10;;;2.40;;
2053;SDS011;1032;52.542;13.440;2022-08-21T05:47:08;7.10;;;2.60;;
2053;SDS011;1032;52.542;13.440;2022-08-21T05:49:36;6.17;;;2.67;;
2053;SDS011;1032;52.542;13.440;2022-08-21T05:52:03;6.70;;;3.00;;
2053;SDS011;1032;52.542;13.440;2022-08-21T05:54:31;5.93;;;2.53;;
2053;SDS011;1032;52.542;13.440;2022-08-21T05:56:58;6.60;;;2.83;;
2053;SDS011;1032;52.542;13.440;2022-08-21T05:59:24;6.33;;;2.83;;
2053;SDS011;1032;52.542;13.440;2022-08-21T06:01:52;6.97;;;3.10;;
2053;SDS011;1032;52.542;13.440;2022-08-21T06:04:19;3.93;;;2.60;;
2053;SDS011;1032;52.542;13.440;2022-08-21T06:06:45;7.60;;;2.67;;
2053;SDS011;1032;52.542;13.440;2022-08-21T06:09:13;5.07;;;2.63;;
2053;SDS011;1032;52.542;13.440;2022-08-21T06:11:41;6.03;;;2.90;;
2053;SDS011;1032;52.542;13.440;2022-08-21T06:14:07;4.70;;;2.20;;
2053;SDS011;1032;52.542;13.440;2022-08-21T06:16:34;8.43;;;2.40;;
2053;SDS011;1032;52.542;13.440;2022-08-21T06:19:01;12.10;;;3.37;;
2053;SDS011;1032;52.542;13.440;2022-08-21T06:21:28;3.90;;;2.33;;
2053;SDS011;1032;52.542;13.440;2022-08-21T06:23:54;7.77;;;2.60;;
2053;SDS011;1032;52.542;13.440;2022-08-21T06:26:21;7.97;;;2.73;;
2053;SDS011;1032;52.542;13.440;2022-08-21T06:28:50;4.70;;;2.50;;
2053;SDS011;1032;52.542;13.440;2022-08-21T06:31:18;5.00;;;2.07;;
2053;SDS011;1032;52.542;13.440;2022-08-21T06:33:46;6.87;;;2.60;;
2053;SDS011;1032;52.542;13.440;2022-08-21T06:36:13;6.90;;;3.03;;
2053;SDS011;1032;52.542;13.440;2022-08-21T06:38:40;6.60;;;2.40;;
2053;SDS011;1032;52.542;13.440;2022-08-21T06:41:07;6.30;;;3.10;;
2053;SDS011;1032;52.542;13.440;2022-08-21T06:43:34;4.83;;;2.50;;
2053;SDS011;1032;52.542;13.440;2022-08-21T06:46:02;8.10;;;2.67;;
2053;SDS011;1032;52.542;13.440;2022-08-21T06:48:28;5.17;;;2.57;;
2053;SDS011;1032;52.542;13.440;2022-08-21T06:50:57;7.10;;;2.30;;
2053;SDS011;1032;52.542;13.440;2022-08-21T06:53:24;7.67;;;3.40;;
2053;SDS011;1032;52.542;13.440;2022-08-21T06:55:51;3.37;;;2.33;;
2053;SDS011;1032;52.542;13.440;2022-08-21T06:58:18;5.60;;;2.43;;
2053;SDS011;1032;52.542;13.440;2022-08-21T07:00:46;5.50;;;2.23;;
2053;SDS011;1032;52.542;13.440;2022-08-21T07:03:19;3.70;;;2.10;;
2053;SDS011;1032;52.542;13.440;2022-08-21T07:05:47;4.60;;;2.40;;
2053;SDS011;1032;52.542;13.440;2022-08-21T07:08:15;5.03;;;2.77;;
2053;SDS011;1032;52.542;13.440;2022-08-21T07:10:42;4.10;;;2.80;;
2053;SDS011;1032;52.542;13.440;2022-08-21T07:13:09;6.80;;;2.73;;
2053;SDS011;1032;52.542;13.440;2022-08-21T07:15:36;5.80;;;2.97;;
2053;SDS011;1032;52.542;13.440;2022-08-21T07:18:03;9.80;;;3.00;;
2053;SDS011;1032;52.542;13.440;2022-08-21T07:20:32;6.83;;;2.87;;
2053;SDS011;1032;52.542;13.440;2022-08-21T07:22:59;6.60;;;3.00;;
2053;SDS011;1032;52.542;13.440;2022-08-21T07:25:29;4.10;;;2.30;;
2053;SDS011;1032;52.542;13.440;2022-08-21T07:27:56;8.43;;;2.60;;
2053;SDS011;1032;52.542;13.440;2022-08-21T07:30:23;5.90;;;2.03;;
2053;SDS011;1032;52.542;13.440;2022-08-21T07:32:50;6.10;;;2.00;;
2053;SDS011;1032;52.542;13.440;2022-08-21T07:35:18;4.03;;;2.00;;
2053;SDS011;1032;52.542;13.440;2022-08-21T07:37:49;4.20;;;2.40;;
2053;SDS011;1032;52.542;13.440;2022-08-21T07:40:16;4.17;;;1.73;;
2053;SDS011;1032;52.542;13.440;2022-08-21T07:42:44;5.40;;;1.90;;
2053;SDS011;1032;52.542;13.440;2022-08-21T07:45:12;5.83;;;2.10;;
2053;SDS011;1032;52.542;13.440;2022-08-21T07:47:39;5.20;;;1.93;;
2053;SDS011;1032;52.542;13.440;2022-08-21T07:50:06;3.57;;;1.80;;
2053;SDS011;1032;52.542;13.440;2022-08-21T07:52:33;6.97;;;2.07;;
2053;SDS011;1032;52.542;13.440;2022-08-21T07:55:01;7.10;;;2.73;;
2053;SDS011;1032;52.542;13.440;2022-08-21T07:57:28;5.23;;;1.83;;
2053;SDS011;1032;52.542;13.440;2022-08-21T07:59:55;8.70;;;1.73;;
2053;SDS011;1032;52.542;13.440;2022-08-21T08:02:23;4.20;;;1.83;;
2053;SDS011;1032;52.542;13.440;2022-08-21T08:04:50;4.00;;;1.70;;
2053;SDS011;1032;52.542;13.440;2022-08-21T08:07:17;4.40;;;1.97;;
2053;SDS011;1032;52.542;13.440;2022-08-21T08:09:43;4.70;;;2.10;;
2053;SDS011;1032;52.542;13.440;2022-08-21T08:12:12;6.17;;;1.70;;
2053;SDS011;1032;52.542;13.440;2022-08-21T08:14:38;5.63;;;1.80;;
2053;SDS011;1032;52.542;13.440;2022-08-21T08:17:05;7.07;;;2.60;;
2053;SDS011;1032;52.542;13.440;2022-08-21T08:19:31;7.63;;;1.70;;
2053;SDS011;1032;52.542;13.440;2022-08-21T08:21:58;4.00;;;1.93;;
2053;SDS011;1032;52.542;13.440;2022-08-21T08:24:25;5.67;;;2.20;;
2053;SDS011;1032;52.542;13.440;2022-08-21T08:26:52;3.83;;;1.73;;
2053;SDS011;1032;52.542;13.440;2022-08-21T08:29:22;5.40;;;2.00;;
2053;SDS011;1032;52.542;13.440;2022-08-21T08:31:49;5.60;;;1.50;;
2053;SDS011;1032;52.542;13.440;2022-08-21T08:34:16;5.57;;;1.93;;
2053;SDS011;1032;52.542;13.440;2022-08-21T08:36:44;6.33;;;2.23;;
2053;SDS011;1032;52.542;13.440;2022-08-21T08:39:11;5.30;;;1.93;;
2053;SDS011;1032;52.542;13.440;2022-08-21T08:41:37;3.77;;;1.40;;
2053;SDS011;1032;52.542;13.440;2022-08-21T08:44:05;5.50;;;2.33;;
2053;SDS011;1032;52.542;13.440;2022-08-21T08:46:34;6.87;;;2.63;;
2053;SDS011;1032;52.542;13.440;2022-08-21T08:49:06;5.53;;;2.10;;
2053;SDS011;1032;52.542;13.440;2022-08-21T08:51:39;8.10;;;2.67;;
2053;SDS011;1032;52.542;13.440;2022-08-21T08:54:11;6.27;;;2.17;;
2053;SDS011;1032;52.542;13.440;2022-08-21T08:56:43;5.03;;;2.00;;
2053;SDS011;1032;52.542;13.440;2022-08-21T08:59:13;3.93;;;1.83;;
2053;SDS011;1032;52.542;13.440;2022-08-21T09:01:45;4.23;;;1.70;;
2053;SDS011;1032;52.542;13.440;2022-08-21T09:04:11;5.30;;;2.33;;
2053;SDS011;1032;52.542;13.440;2022-08-21T09:06:43;4.60;;;2.10;;
2053;SDS011;1032;52.542;13.440;2022-08-21T09:09:31;6.70;;;1.67;;
2053;SDS011;1032;52.542;13.440;2022-08-21T09:12:09;5.00;;;2.00;;
2053;SDS011;1032;52.542;13.440;2022-08-21T09:14:47;3.47;;;1.83;;
2053;SDS011;1032;52.542;13.440;2022-08-21T09:17:26;5.50;;;1.90;;
2053;SDS011;1032;52.542;13.440;2022-08-21T09:20:08;5.60;;;1.70;;
2053;SDS011;1032;52.542;13.440;2022-08-21T09:22:48;4.80;;;1.60;;
2053;SDS011;1032;52.542;13.440;2022-08-21T09:25:27;7.47;;;2.13;;
2053;SDS011;1032;52.542;13.440;2022-08-21T09:27:56;4.03;;;1.97;;
2053;SDS011;1032;52.542;13.440;2022-08-21T09:30:24;4.10;;;1.70;;
2053;SDS011;1032;52.542;13.440;2022-08-21T09:32:54;4.33;;;1.70;;
2053;SDS011;1032;52.542;13.440;2022-08-21T09:35:21;4.53;;;2.07;;
2053;SDS011;1032;52.542;13.440;2022-08-21T09:37:51;5.70;;;1.93;;
2053;SDS011;1032;52.542;13.440;2022-08-21T09:40:31;5.43;;;2.17;;
2053;SDS011;1032;52.542;13.440;2022-08-21T09:43:02;3.47;;;2.00;;
2053;SDS011;1032;52.542;13.440;2022-08-21T09:45:31;4.37;;;1.67;;
2053;SDS011;1032;52.542;13.440;2022-08-21T09:48:09;8.57;;;2.00;;
2053;SDS011;1032;52.542;13.440;2022-08-21T09:50:37;4.60;;;1.73;;
2053;SDS011;1032;52.542;13.440;2022-08-21T09:53:04;3.93;;;1.60;;
2053;SDS011;1032;52.542;13.440;2022-08-21T09:55:46;7.90;;;1.80;;
2053;SDS011;1032;52.542;13.440;2022-08-21T09:58:35;5.30;;;1.90;;
2053;SDS011;1032;52.542;13.440;2022-08-21T10:01:04;3.73;;;1.87;;
2053;SDS011;1032;52.542;13.440;2022-08-21T10:03:33;4.03;;;1.90;;
2053;SDS011;1032;52.542;13.440;2022-08-21T10:06:00;5.47;;;1.90;;
2053;SDS011;1032;52.542;13.440;2022-08-21T10:08:34;6.17;;;2.00;;
2053;SDS011;1032;52.542;13.440;2022-08-21T10:11:06;5.93;;;2.20;;
2053;SDS011;1032;52.542;13.440;2022-08-21T10:13:40;5.17;;;2.20;;
2053;SDS011;1032;52.542;13.440;2022-08-21T10:19:11;3.93;;;1.90;;
2053;SDS011;1032;52.542;13.440;2022-08-21T10:21:48;3.30;;;1.60;;
2053;SDS011;1032;52.542;13.440;2022-08-21T10:24:26;6.80;;;1.77;;
2053;SDS011;1032;52.542;13.440;2022-08-21T10:27:01;4.47;;;1.83;;
2053;SDS011;1032;52.542;13.440;2022-08-21T10:29:39;5.87;;;1.83;;
2053;SDS011;1032;52.542;13.440;2022-08-21T10:32:15;4.90;;;2.17;;
2053;SDS011;1032;52.542;13.440;2022-08-21T10:34:55;5.23;;;2.47;;
2053;SDS011;1032;52.542;13.440;2022-08-21T10:37:30;6.97;;;1.83;;
2053;SDS011;1032;52.542;13.440;2022-08-21T10:40:07;4.13;;;2.53;;
2053;SDS011;1032;52.542;13.440;2022-08-21T10:42:43;4.40;;;2.20;;
2053;SDS011;1032;52.542;13.440;2022-08-21T10:45:22;5.87;;;2.10;;
2053;SDS011;1032;52.542;13.440;2022-08-21T10:47:57;3.67;;;1.90;;
2053;SDS011;1032;52.542;13.440;2022-08-21T10:50:30;6.87;;;2.53;;
2053;SDS011;1032;52.542;13.440;2022-08-21T10:53:05;3.70;;;2.00;;
2053;SDS011;1032;52.542;13.440;2022-08-21T10:55:43;4.60;;;2.10;;
2053;SDS011;1032;52.542;13.440;2022-08-21T10:58:16;5.80;;;2.33;;
2053;SDS011;1032;52.542;13.440;2022-08-21T11:00:50;3.93;;;1.70;;
2053;SDS011;1032;52.542;13.440;2022-08-21T11:03:23;6.40;;;1.57;;
2053;SDS011;1032;52.542;13.440;2022-08-21T11:05:55;5.70;;;2.30;;
2053;SDS011;1032;52.542;13.440;2022-08-21T11:08:28;13.63;;;2.80;;
2053;SDS011;1032;52.542;13.440;2022-08-21T11:11:00;4.77;;;1.90;;
2053;SDS011;1032;52.542;13.440;2022-08-21T11:13:33;2.83;;;1.40;;
2053;SDS011;1032;52.542;13.440;2022-08-21T11:16:07;3.00;;;1.50;;
2053;SDS011;1032;52.542;13.440;2022-08-21T11:18:41;2.90;;;1.47;;
2053;SDS011;1032;52.542;13.440;2022-08-21T11:21:19;4.10;;;1.90;;
2053;SDS011;1032;52.542;13.440;2022-08-21T11:23:54;3.73;;;1.70;;
2053;SDS011;1032;52.542;13.440;2022-08-21T11:26:29;4.63;;;1.83;;
2053;SDS011;1032;52.542;13.440;2022-08-21T11:29:02;4.63;;;1.53;;
2053;SDS011;1032;52.542;13.440;2022-08-21T11:31:37;2.83;;;1.90;;
2053;SDS011;1032;52.542;13.440;2022-08-21T11:34:19;3.33;;;1.53;;
2053;SDS011;1032;52.542;13.440;2022-08-21T11:37:02;3.40;;;1.03;;
2053;SDS011;1032;52.542;13.440;2022-08-21T11:39:37;4.07;;;1.50;;
2053;SDS011;1032;52.542;13.440;2022-08-21T11:42:14;3.43;;;1.50;;
2053;SDS011;1032;52.542;13.440;2022-08-21T11:44:48;4.13;;;1.53;;
2053;SDS011;1032;52.542;13.440;2022-08-21T11:47:22;3.90;;;1.17;;
2053;SDS011;1032;52.542;13.440;2022-08-21T11:49:59;3.17;;;1.30;;
2053;SDS011;1032;52.542;13.440;2022-08-21T11:52:34;2.63;;;0.93;;
2053;SDS011;1032;52.542;13.440;2022-08-21T11:55:05;2.10;;;1.13;;
2053;SDS011;1032;52.542;13.440;2022-08-21T11:57:39;1.73;;;1.00;;
2053;SDS011;1032;52.542;13.440;2022-08-21T12:00:18;3.70;;;1.17;;
2053;SDS011;1032;52.542;13.440;2022-08-21T12:02:48;3.73;;;1.40;;
2053;SDS011;1032;52.542;13.440;2022-08-21T12:05:29;1.43;;;0.90;;
2053;SDS011;1032;52.542;13.440;2022-08-21T12:08:07;3.87;;;1.10;;
2053;SDS011;1032;52.542;13.440;2022-08-21T12:10:38;2.97;;;1.00;;
2053;SDS011;1032;52.542;13.440;2022-08-21T12:13:11;6.23;;;1.47;;
2053;SDS011;1032;52.542;13.440;2022-08-21T12:15:48;3.33;;;1.40;;
2053;SDS011;1032;52.542;13.440;2022-08-21T12:18:20;2.80;;;1.20;;
2053;SDS011;1032;52.542;13.440;2022-08-21T12:21:01;4.10;;;1.50;;
2053;SDS011;1032;52.542;13.440;2022-08-21T12:23:32;3.53;;;1.70;;
2053;SDS011;1032;52.542;13.440;2022-08-21T12:26:21;2.30;;;1.13;;
2053;SDS011;1032;52.542;13.440;2022-08-21T12:29:02;2.30;;;1.37;;
2053;SDS011;1032;52.542;13.440;2022-08-21T12:31:54;3.63;;;1.97;;
2053;SDS011;1032;52.542;13.440;2022-08-21T12:34:25;2.87;;;1.60;;
2053;SDS011;1032;52.542;13.440;2022-08-21T12:36:58;3.37;;;1.50;;
2053;SDS011;1032;52.542;13.440;2022-08-21T12:39:30;3.20;;;1.40;;
2053;SDS011;1032;52.542;13.440;2022-08-21T12:42:00;3.83;;;1.57;;
2053;SDS011;1032;52.542;13.440;2022-08-21T12:44:34;3.73;;;1.40;;
2053;SDS011;1032;52.542;13.440;2022-08-21T12:47:05;6.00;;;1.37;;
2053;SDS011;1032;52.542;13.440;2022-08-21T12:49:41;2.40;;;1.20;;
2053;SDS011;1032;52.542;13.440;2022-08-21T12:52:16;3.23;;;1.27;;
2053;SDS011;1032;52.542;13.440;2022-08-21T12:54:48;2.90;;;1.07;;
2053;SDS011;1032;52.542;13.440;2022-08-21T12:57:18;1.90;;;0.90;;
2053;SDS011;1032;52.542;13.440;2022-08-21T12:59:50;2.70;;;1.40;;
2053;SDS011;1032;52.542;13.440;2022-08-21T13:02:19;2.13;;;1.50;;
2053;SDS011;1032;52.542;13.440;2022-08-21T13:04:48;2.60;;;1.30;;
2053;SDS011;1032;52.542;13.440;2022-08-21T13:07:16;2.90;;;1.80;;
2053;SDS011;1032;52.542;13.440;2022-08-21T13:09:53;3.90;;;1.83;;
2053;SDS011;1032;52.542;13.440;2022-08-21T13:12:23;3.53;;;1.73;;
2053;SDS011;1032;52.542;13.440;2022-08-21T13:14:51;3.70;;;1.77;;
2053;SDS011;1032;52.542;13.440;2022-08-21T13:17:21;2.83;;;1.20;;
2053;SDS011;1032;52.542;13.440;2022-08-21T13:19:54;3.33;;;1.57;;
2053;SDS011;1032;52.542;13.440;2022-08-21T13:22:23;3.80;;;1.67;;
2053;SDS011;1032;52.542;13.440;2022-08-21T13:24:51;6.10;;;2.13;;
2053;SDS011;1032;52.542;13.440;2022-08-21T13:27:20;3.70;;;1.60;;
2053;SDS011;1032;52.542;13.440;2022-08-21T13:30:00;2.20;;;1.10;;
2053;SDS011;1032;52.542;13.440;2022-08-21T13:32:30;2.90;;;1.53;;
2053;SDS011;1032;52.542;13.440;2022-08-21T13:34:58;2.33;;;1.37;;
2053;SDS011;1032;52.542;13.440;2022-08-21T13:37:25;3.40;;;1.43;;
2053;SDS011;1032;52.542;13.440;2022-08-21T13:39:55;2.70;;;1.40;;
2053;SDS011;1032;52.542;13.440;2022-08-21T13:42:22;5.50;;;2.00;;
2053;SDS011;1032;52.542;13.440;2022-08-21T13:44:50;3.33;;;1.40;;
2053;SDS011;1032;52.542;13.440;2022-08-21T13:47:18;3.97;;;1.60;;
2053;SDS011;1032;52.542;13.440;2022-08-21T13:49:46;5.03;;;1.90;;
2053;SDS011;1032;52.542;13.440;2022-08-21T13:52:15;3.27;;;1.50;;
2053;SDS011;1032;52.542;13.440;2022-08-21T13:54:51;3.97;;;2.33;;
2053;SDS011;1032;52.542;13.440;2022-08-21T13:57:25;2.87;;;1.80;;
2053;SDS011;1032;52.542;13.440;2022-08-21T14:00:09;3.80;;;2.00;;
2053;SDS011;1032;52.542;13.440;2022-08-21T14:02:41;4.50;;;2.17;;
2053;SDS011;1032;52.542;13.440;2022-08-21T14:05:14;3.60;;;2.07;;
2053;SDS011;1032;52.542;13.440;2022-08-21T14:07:42;4.77;;;2.40;;
2053;SDS011;1032;52.542;13.440;2022-08-21T14:10:11;7.63;;;2.80;;
2053;SDS011;1032;52.542;13.440;2022-08-21T14:12:43;13.00;;;2.40;;
2053;SDS011;1032;52.542;13.440;2022-08-21T14:15:13;5.33;;;2.10;;
2053;SDS011;1032;52.542;13.440;2022-08-21T14:17:43;5.93;;;2.53;;
2053;SDS011;1032;52.542;13.440;2022-08-21T14:20:11;8.00;;;2.60;;
2053;SDS011;1032;52.542;13.440;2022-08-21T14:22:52;4.43;;;1.90;;
2053;SDS011;1032;52.542;13.440;2022-08-21T14:25:28;4.23;;;2.27;;
2053;SDS011;1032;52.542;13.440;2022-08-21T14:28:03;6.93;;;2.03;;
2053;SDS011;1032;52.542;13.440;2022-08-21T14:30:41;5.50;;;2.07;;
2053;SDS011;1032;52.542;13.440;2022-08-21T14:33:10;3.40;;;1.77;;
2053;SDS011;1032;52.542;13.440;2022-08-21T14:35:39;6.47;;;2.53;;
2053;SDS011;1032;52.542;13.440;2022-08-21T14:38:11;7.83;;;3.03;;
2053;SDS011;1032;52.542;13.440;2022-08-21T14:40:39;6.70;;;2.30;;
2053;SDS011;1032;52.542;13.440;2022-08-21T14:43:08;4.23;;;1.77;;
2053;SDS011;1032;52.542;13.440;2022-08-21T14:45:35;5.83;;;2.30;;
2053;SDS011;1032;52.542;13.440;2022-08-21T14:48:05;3.53;;;2.47;;
2053;SDS011;1032;52.542;13.440;2022-08-21T14:50:33;4.20;;;2.70;;
2053;SDS011;1032;52.542;13.440;2022-08-21T14:53:00;4.57;;;3.03;;
2053;SDS011;1032;52.542;13.440;2022-08-21T14:55:28;5.23;;;2.83;;
2053;SDS011;1032;52.542;13.440;2022-08-21T14:57:55;5.63;;;2.50;;
2053;SDS011;1032;52.542;13.440;2022-08-21T15:00:24;4.57;;;2.00;;
2053;SDS011;1032;52.542;13.440;2022-08-21T15:02:51;3.53;;;2.13;;
2053;SDS011;1032;52.542;13.440;2022-08-21T15:05:18;3.43;;;1.70;;
2053;SDS011;1032;52.542;13.440;2022-08-21T15:07:45;5.30;;;1.83;;
2053;SDS011;1032;52.542;13.440;2022-08-21T15:10:11;6.87;;;1.97;;
2053;SDS011;1032;52.542;13.440;2022-08-21T15:12:38;3.00;;;1.77;;
2053;SDS011;1032;52.542;13.440;2022-08-21T15:15:06;4.53;;;2.60;;
2053;SDS011;1032;52.542;13.440;2022-08-21T15:17:36;5.57;;;2.40;;